^^
Datos históricos de la estación: Murcia-Puente Tocinos
Diario Informe para Junio 29, 2022 Unidades:  Ambas    Ingés   Métrico
Diario Semanal Mensual Anual
  Máxima: Mínima: Promedio:
Temperatura: 90 °F /  32.2 °C 69.8 °F /  21 °C 79.7 °F /  26.5 °C
Punto de rocio: 68 °F /  20 °C 57.9 °F /  14.4 °C 64.2 °F /  17.9 °C
Humedad: 85% 35.4% 61%
Velocidad viento: 11.8mph /  19km/h - 5mph /  8km/h
Racha viento: 23mph /  37km/h - -
Viento- - ESE
Presión: 30 in /  1015.3 hPa 29.8 in /  1009.3 hPa -
Precipitación: 0 in /  0.0 mm    
 
 
Tabla de datos para Junio 29, 2022
Hora Temperatura Punto de rocio Presión Viento Velocidad viento Racha viento Humedad Intensidad lluvia(por hora) Nubes
01:29 73.4 °F /  23 °C 67.6 °F /  19.8 °C 30in /  1015.3hPa NNE 5.2mph /  8.4km/h 15mph /  24.1km/h 82% 0in /  0.0mm
01:34 73.2 °F /  22.9 °C 67.5 °F /  19.7 °C 30in /  1015.3hPa NNE 4.5mph /  7.2km/h 15mph /  24.1km/h 82% 0in /  0.0mm
01:39 73.2 °F /  22.9 °C 67.5 °F /  19.7 °C 30in /  1015.3hPa NE 4.3mph /  6.9km/h 6.9mph /  11.1km/h 82% 0in /  0.0mm
01:44 73.2 °F /  22.9 °C 67.6 °F /  19.8 °C 30in /  1015.2hPa NE 3.7mph /  6km/h 5.9mph /  9.5km/h 82.6% 0in /  0.0mm
01:49 73.2 °F /  22.9 °C 67.6 °F /  19.8 °C 30in /  1015.2hPa NE 3.6mph /  5.8km/h 6.9mph /  11.1km/h 83% 0in /  0.0mm
01:54 73 °F /  22.8 °C 67.6 °F /  19.8 °C 30in /  1015.2hPa NE 3.9mph /  6.3km/h 6.9mph /  11.1km/h 83% 0in /  0.0mm
01:59 73 °F /  22.8 °C 67.8 °F /  19.9 °C 30in /  1015.1hPa NE 4mph /  6.4km/h 8.1mph /  13km/h 83.6% 0in /  0.0mm
02:04 72.9 °F /  22.7 °C 67.8 °F /  19.9 °C 30in /  1015.1hPa NNE 4.2mph /  6.8km/h 6.9mph /  11.1km/h 84% 0in /  0.0mm
02:09 72.9 °F /  22.7 °C 67.6 °F /  19.8 °C 30in /  1015.1hPa NE 4.3mph /  6.9km/h 5.2mph /  8.4km/h 84% 0in /  0.0mm
02:14 72.9 °F /  22.7 °C 67.6 °F /  19.8 °C 30in /  1015.0hPa NE 3.7mph /  6km/h 4.6mph /  7.4km/h 84% 0in /  0.0mm
02:19 72.9 °F /  22.7 °C 67.8 °F /  19.9 °C 30in /  1015.0hPa NE 3.6mph /  5.8km/h 5.9mph /  9.5km/h 84.4% 0in /  0.0mm
02:24 72.9 °F /  22.7 °C 68 °F /  20 °C 30in /  1015.0hPa NE 3mph /  4.9km/h 5.9mph /  9.5km/h 85% 0in /  0.0mm
02:29 72.7 °F /  22.6 °C 67.8 °F /  19.9 °C 30in /  1014.9hPa NNE 2.9mph /  4.7km/h 4.6mph /  7.4km/h 85% 0in /  0.0mm
02:34 72.7 °F /  22.6 °C 67.8 °F /  19.9 °C 30in /  1014.9hPa NNE 2.5mph /  4km/h 2.4mph /  3.9km/h 85% 0in /  0.0mm
02:39 72.7 °F /  22.6 °C 67.8 °F /  19.9 °C 30in /  1014.9hPa Este 2.4mph /  3.9km/h   85% 0in /  0.0mm
02:44 72.7 °F /  22.6 °C 67.6 °F /  19.8 °C 30in /  1014.8hPa NE 0.5mph /  0.8km/h 4.6mph /  7.4km/h 84.1% 0in /  0.0mm
02:49 72.5 °F /  22.5 °C 67.5 °F /  19.7 °C 30in /  1014.8hPa Calm   2.3mph /  3.7km/h 84% 0in /  0.0mm
02:54 72.5 °F /  22.5 °C 67.3 °F /  19.6 °C 30in /  1014.8hPa NNE 1.1mph /  1.8km/h 2.3mph /  3.7km/h 84% 0in /  0.0mm
02:59 72.3 °F /  22.4 °C 67.3 °F /  19.6 °C 30in /  1014.6hPa NNE 1.4mph /  2.3km/h   84% 0in /  0.0mm
03:04 72.3 °F /  22.4 °C 67.3 °F /  19.6 °C 30in /  1014.6hPa NNE 0.2mph /  0.4km/h 2.4mph /  3.9km/h 84% 0in /  0.0mm
03:09 72.5 °F /  22.5 °C 67.5 °F /  19.7 °C 30in /  1014.6hPa Calm   3.5mph /  5.6km/h 84% 0in /  0.0mm
03:14 72.5 °F /  22.5 °C 67.5 °F /  19.7 °C 30in /  1014.6hPa Este 1.1mph /  1.7km/h 3.5mph /  5.6km/h 84% 0in /  0.0mm
03:19 72.5 °F /  22.5 °C 67.5 °F /  19.7 °C 30in /  1014.6hPa Este 1.4mph /  2.3km/h 2mph /  3.2km/h 84% 0in /  0.0mm
03:24 72.5 °F /  22.5 °C 67.5 °F /  19.7 °C 30in /  1014.6hPa ENE 0.3mph /  0.5km/h 3.5mph /  5.6km/h 84% 0in /  0.0mm
03:29 72.5 °F /  22.5 °C 67.5 °F /  19.7 °C 30in /  1014.4hPa Calm   2.3mph /  3.7km/h 84% 0in /  0.0mm
03:34 72.5 °F /  22.5 °C 67.5 °F /  19.7 °C 30in /  1014.4hPa ESE 1.1mph /  1.8km/h   84% 0in /  0.0mm
03:39 72.5 °F /  22.5 °C 67.5 °F /  19.7 °C 30in /  1014.4hPa ESE 1.4mph /  2.3km/h   84% 0in /  0.0mm
03:44 72.7 °F /  22.6 °C 67.6 °F /  19.8 °C 30in /  1014.3hPa ESE 0.2mph /  0.4km/h 3.6mph /  5.8km/h 84% 0in /  0.0mm
03:49 72.7 °F /  22.6 °C 67.6 °F /  19.8 °C 30in /  1014.3hPa Calm   3.6mph /  5.8km/h 84% 0in /  0.0mm
03:54 72.7 °F /  22.6 °C 67.6 °F /  19.8 °C 30in /  1014.3hPa Oeste 1.6mph /  2.6km/h 3.5mph /  5.6km/h 84% 0in /  0.0mm
03:59 72.7 °F /  22.6 °C 67.3 °F /  19.6 °C 30in /  1014.2hPa Oeste 2mph /  3.2km/h   83.3% 0in /  0.0mm
04:04 72.7 °F /  22.6 °C 67.3 °F /  19.6 °C 30in /  1014.2hPa Oeste 0.3mph /  0.5km/h   83% 0in /  0.0mm
04:09 72.5 °F /  22.5 °C 67.1 °F /  19.5 °C 30in /  1014.2hPa Calm     83.2% 0in /  0.0mm
04:14 72.3 °F /  22.4 °C 66.9 °F /  19.4 °C 29.9in /  1014.0hPa Calm   3.6mph /  5.8km/h 83% 0in /  0.0mm
04:19 72.3 °F /  22.4 °C 66.9 °F /  19.4 °C 29.9in /  1014.0hPa Calm   2.9mph /  4.7km/h 83% 0in /  0.0mm
04:24 72.1 °F /  22.3 °C 66.7 °F /  19.3 °C 29.9in /  1014.0hPa Este 1.6mph /  2.5km/h 4.6mph /  7.4km/h 83% 0in /  0.0mm
04:29 72 °F /  22.2 °C 66.6 °F /  19.2 °C 29.9in /  1014.0hPa ESE 2mph /  3.2km/h 4.6mph /  7.4km/h 83% 0in /  0.0mm
04:34 71.8 °F /  22.1 °C 66.2 °F /  19 °C 29.9in /  1014.0hPa ESE 2mph /  3.2km/h 4.6mph /  7.4km/h 82.3% 0in /  0.0mm
04:39 71.6 °F /  22 °C 65.7 °F /  18.7 °C 29.9in /  1014.0hPa ESE 2mph /  3.2km/h 3.5mph /  5.6km/h 82% 0in /  0.0mm
04:44 71.4 °F /  21.9 °C 65.7 °F /  18.7 °C 29.9in /  1013.9hPa ESE 1.9mph /  3km/h 4.6mph /  7.4km/h 82% 0in /  0.0mm
04:49 71.4 °F /  21.9 °C 65.3 °F /  18.5 °C 29.9in /  1013.9hPa Este 1.8mph /  2.9km/h 4.7mph /  7.6km/h 81.5% 0in /  0.0mm
04:54 71.2 °F /  21.8 °C 65.1 °F /  18.4 °C 29.9in /  1013.9hPa Este 1.9mph /  3.1km/h 4.6mph /  7.4km/h 81% 0in /  0.0mm
04:59 71.1 °F /  21.7 °C 64.8 °F /  18.2 °C 29.9in /  1013.9hPa Este 2mph /  3.2km/h 4.6mph /  7.4km/h 80.4% 0in /  0.0mm
05:04 70.9 °F /  21.6 °C 64.4 °F /  18 °C 29.9in /  1013.9hPa ESE 2.7mph /  4.4km/h 4.7mph /  7.6km/h 80% 0in /  0.0mm
05:09 70.7 °F /  21.5 °C 64.2 °F /  17.9 °C 29.9in /  1013.9hPa ESE 2.9mph /  4.7km/h 4.6mph /  7.4km/h 80% 0in /  0.0mm
05:14 70.9 °F /  21.6 °C 64.4 °F /  18 °C 29.9in /  1013.8hPa ESE 2.2mph /  3.5km/h 2.9mph /  4.7km/h 80% 0in /  0.0mm
05:19 70.9 °F /  21.6 °C 64.4 °F /  18 °C 29.9in /  1013.8hPa ESE 2mph /  3.2km/h 3.1mph /  5km/h 80% 0in /  0.0mm
05:24 71.1 °F /  21.7 °C 64.4 °F /  18 °C 29.9in /  1013.9hPa Este 1.9mph /  3km/h 5.2mph /  8.4km/h 79.8% 0in /  0.0mm
05:29 70.9 °F /  21.6 °C 64 °F /  17.8 °C 29.9in /  1013.9hPa ESE 1.8mph /  2.9km/h 5.8mph /  9.3km/h 79% 0in /  0.0mm
05:34 70.9 °F /  21.6 °C 64 °F /  17.8 °C 29.9in /  1013.9hPa ESE 2.7mph /  4.3km/h 4.6mph /  7.4km/h 79% 0in /  0.0mm
05:39 70.9 °F /  21.6 °C 64 °F /  17.8 °C 29.9in /  1013.9hPa Este 2.9mph /  4.7km/h 4.6mph /  7.4km/h 79% 0in /  0.0mm
05:44 70.7 °F /  21.5 °C 63.5 °F /  17.5 °C 29.9in /  1013.9hPa Este 2.2mph /  3.5km/h 5.9mph /  9.5km/h 78.2% 0in /  0.0mm
05:49 70.3 °F /  21.3 °C 63.1 °F /  17.3 °C 29.9in /  1013.9hPa ESE 2mph /  3.2km/h 4.6mph /  7.4km/h 78% 0in /  0.0mm
05:54 70.3 °F /  21.3 °C 63.1 °F /  17.3 °C 29.9in /  1013.9hPa SE 2.7mph /  4.4km/h 4.6mph /  7.4km/h 78% 0in /  0.0mm
05:59 70.3 °F /  21.3 °C 63.3 °F /  17.4 °C 29.9in /  1013.9hPa SE 2.9mph /  4.7km/h 4.6mph /  7.4km/h 78% 0in /  0.0mm
06:04 70.5 °F /  21.4 °C 63.3 °F /  17.4 °C 29.9in /  1013.9hPa ESE 2mph /  3.2km/h 2.4mph /  3.9km/h 78% 0in /  0.0mm
06:09 70.3 °F /  21.3 °C 63.1 °F /  17.3 °C 29.9in /  1013.9hPa ENE 1.8mph /  2.9km/h 4.6mph /  7.4km/h 77.7% 0in /  0.0mm
06:14 70.3 °F /  21.3 °C 63.1 °F /  17.3 °C 29.9in /  1013.9hPa NE 1.9mph /  3.1km/h 3.5mph /  5.6km/h 78% 0in /  0.0mm
06:19 70.2 °F /  21.2 °C 63.1 °F /  17.3 °C 29.9in /  1013.9hPa Este 2mph /  3.2km/h 4.6mph /  7.4km/h 78.2% 0in /  0.0mm
06:24 70.2 °F /  21.2 °C 63.3 °F /  17.4 °C 29.9in /  1014.0hPa ENE 2mph /  3.2km/h 4.6mph /  7.4km/h 79% 0in /  0.0mm
06:29 70.2 °F /  21.2 °C 63.7 °F /  17.6 °C 29.9in /  1014.0hPa ENE 2mph /  3.2km/h 3.5mph /  5.6km/h 79.8% 0in /  0.0mm
06:34 70.3 °F /  21.3 °C 64 °F /  17.8 °C 29.9in /  1014.0hPa ENE 1.9mph /  3km/h 3.5mph /  5.6km/h 80.4% 0in /  0.0mm
06:39 70.3 °F /  21.3 °C 64.2 °F /  17.9 °C 29.9in /  1014.0hPa ENE 1.8mph /  2.9km/h   81% 0in /  0.0mm
06:44 70.3 °F /  21.3 °C 64 °F /  17.8 °C 29.9in /  1014.0hPa ENE 0.3mph /  0.5km/h   80.7% 0in /  0.0mm
06:49 70.2 °F /  21.2 °C 63.9 °F /  17.7 °C 29.9in /  1014.0hPa Calm   4mph /  6.4km/h 80.1% 0in /  0.0mm
06:54 70 °F /  21.1 °C 63.7 °F /  17.6 °C 29.9in /  1014.1hPa ONO 1.5mph /  2.4km/h 4.6mph /  7.4km/h 80.5% 0in /  0.0mm
06:59 69.8 °F /  21 °C 63.9 °F /  17.7 °C 29.9in /  1014.1hPa ONO 1.8mph /  2.9km/h 3.6mph /  5.8km/h 81% 0in /  0.0mm
07:04 69.8 °F /  21 °C 63.7 °F /  17.6 °C 29.9in /  1014.1hPa ONO 2mph /  3.2km/h 3.6mph /  5.8km/h 81% 0in /  0.0mm
07:09 70 °F /  21.1 °C 63.9 °F /  17.7 °C 29.9in /  1014.1hPa Oeste 2mph /  3.2km/h 4.6mph /  7.4km/h 81% 0in /  0.0mm
07:14 70 °F /  21.1 °C 64 °F /  17.8 °C 29.9in /  1014.0hPa Oeste 2mph /  3.2km/h 4.6mph /  7.4km/h 81% 0in /  0.0mm
07:19 70.2 °F /  21.2 °C 64 °F /  17.8 °C 29.9in /  1014.0hPa Oeste 2mph /  3.2km/h 2.9mph /  4.7km/h 80.9% 0in /  0.0mm
07:24 70.3 °F /  21.3 °C 63.9 °F /  17.7 °C 30in /  1014.2hPa Oeste 1.9mph /  3km/h 3.5mph /  5.6km/h 80% 0in /  0.0mm
07:29 70.5 °F /  21.4 °C 63.9 °F /  17.7 °C 30in /  1014.2hPa OSO 1.8mph /  2.9km/h 5.8mph /  9.3km/h 79.8% 0in /  0.0mm
07:34 70.5 °F /  21.4 °C 63.9 °F /  17.7 °C 30in /  1014.2hPa Sur 2.3mph /  3.7km/h 4.6mph /  7.4km/h 79% 0in /  0.0mm
07:39 70.9 °F /  21.6 °C 63.9 °F /  17.7 °C 30in /  1014.2hPa Sur 2.4mph /  3.9km/h 4.6mph /  7.4km/h 78.5% 0in /  0.0mm
07:44 71.1 °F /  21.7 °C 63.9 °F /  17.7 °C 29.9in /  1014.1hPa SSE 2.4mph /  3.9km/h 4.6mph /  7.4km/h 78% 0in /  0.0mm
07:49 71.2 °F /  21.8 °C 63.9 °F /  17.7 °C 29.9in /  1014.1hPa SSE 2.4mph /  3.9km/h 4.7mph /  7.6km/h 77.5% 0in /  0.0mm
07:54 71.4 °F /  21.9 °C 63.9 °F /  17.7 °C 29.9in /  1014.1hPa SSE 2.8mph /  4.5km/h 5.2mph /  8.4km/h 77% 0in /  0.0mm
07:59 71.6 °F /  22 °C 63.9 °F /  17.7 °C 29.9in /  1014.1hPa SSE 2.9mph /  4.7km/h 4.7mph /  7.6km/h 77% 0in /  0.0mm
08:04 71.8 °F /  22.1 °C 64.2 °F /  17.9 °C 29.9in /  1014.1hPa SSE 3mph /  4.9km/h 4.6mph /  7.4km/h 77% 0in /  0.0mm
08:09 72 °F /  22.2 °C 64.2 °F /  17.9 °C 29.9in /  1014.1hPa Sur 3.1mph /  5km/h 4.6mph /  7.4km/h 76.6% 0in /  0.0mm
08:14 72.1 °F /  22.3 °C 64.2 °F /  17.9 °C 29.9in /  1014.1hPa SSO 2.5mph /  4.1km/h 3.5mph /  5.6km/h 76% 0in /  0.0mm
08:19 72.3 °F /  22.4 °C 64.6 °F /  18.1 °C 29.9in /  1014.1hPa Sur 2.4mph /  3.9km/h 3.5mph /  5.6km/h 76.6% 0in /  0.0mm
08:24 73 °F /  22.8 °C 64.9 °F /  18.3 °C 29.9in /  1014.1hPa NNO 0.5mph /  0.8km/h 4.6mph /  7.4km/h 76.1% 0in /  0.0mm
08:29 73.6 °F /  23.1 °C 65.1 °F /  18.4 °C 29.9in /  1014.0hPa Calm   3.6mph /  5.8km/h 74.8% 0in /  0.0mm
08:34 73.9 °F /  23.3 °C 65.1 °F /  18.4 °C 29.9in /  1014.0hPa NNO 1.6mph /  2.5km/h 3.6mph /  5.8km/h 74.3% 0in /  0.0mm
08:39 74.3 °F /  23.5 °C 65.3 °F /  18.5 °C 29.9in /  1014.0hPa NNE 2mph /  3.2km/h 4.6mph /  7.4km/h 73.3% 0in /  0.0mm
08:44 74.8 °F /  23.8 °C 65.5 °F /  18.6 °C 29.9in /  1014.0hPa NE 1.9mph /  3km/h 2.3mph /  3.7km/h 72.8% 0in /  0.0mm
08:49 75.4 °F /  24.1 °C 65.5 °F /  18.6 °C 29.9in /  1014.0hPa NE 1.8mph /  2.9km/h 3.6mph /  5.8km/h 71.6% 0in /  0.0mm
08:54 75.7 °F /  24.3 °C 65.7 °F /  18.7 °C 29.9in /  1014.0hPa NE 1.5mph /  2.4km/h 5.2mph /  8.4km/h 70.6% 0in /  0.0mm
08:59 76.1 °F /  24.5 °C 65.3 °F /  18.5 °C 29.9in /  1014.0hPa NE 1.4mph /  2.3km/h 5.2mph /  8.4km/h 69.2% 0in /  0.0mm
09:04 75.9 °F /  24.4 °C 65.5 °F /  18.6 °C 29.9in /  1014.0hPa NNO 2.2mph /  3.6km/h 4.7mph /  7.6km/h 70% 0in /  0.0mm
09:09 76.1 °F /  24.5 °C 65.7 °F /  18.7 °C 29.9in /  1014.0hPa North 2.4mph /  3.9km/h 4.6mph /  7.4km/h 70.5% 0in /  0.0mm
09:14 76.5 °F /  24.7 °C 65.7 °F /  18.7 °C 29.9in /  1014.0hPa NNE 2.1mph /  3.3km/h 4.6mph /  7.4km/h 69.6% 0in /  0.0mm
09:19 76.5 °F /  24.7 °C 65.7 °F /  18.7 °C 29.9in /  1014.0hPa North 2mph /  3.2km/h 4.6mph /  7.4km/h 69.3% 0in /  0.0mm
09:24 76.5 °F /  24.7 °C 65.8 °F /  18.8 °C 29.9in /  1014.0hPa NNO 2mph /  3.2km/h 4.6mph /  7.4km/h 70% 0in /  0.0mm
09:29 76.5 °F /  24.7 °C 65.8 °F /  18.8 °C 29.9in /  1013.9hPa North 2mph /  3.2km/h 4.6mph /  7.4km/h 69.9% 0in /  0.0mm
09:34 76.6 °F /  24.8 °C 65.8 °F /  18.8 °C 29.9in /  1013.9hPa NNE 2mph /  3.2km/h 4.7mph /  7.6km/h 69.2% 0in /  0.0mm
09:39 76.6 °F /  24.8 °C 65.7 °F /  18.7 °C 29.9in /  1013.9hPa NE 2mph /  3.2km/h 4.7mph /  7.6km/h 68.7% 0in /  0.0mm
09:44 76.8 °F /  24.9 °C 65.7 °F /  18.7 °C 29.9in /  1013.9hPa ESE 2.7mph /  4.4km/h 4.6mph /  7.4km/h 68.4% 0in /  0.0mm
09:49 77 °F /  25 °C 65.7 °F /  18.7 °C 29.9in /  1013.9hPa ESE 2.9mph /  4.7km/h 3.6mph /  5.8km/h 68% 0in /  0.0mm
09:54 77.4 °F /  25.2 °C 65.5 °F /  18.6 °C 29.9in /  1013.9hPa North 2.2mph /  3.5km/h 5.2mph /  8.4km/h 67.3% 0in /  0.0mm
09:59 77.4 °F /  25.2 °C 65.3 °F /  18.5 °C 29.9in /  1013.8hPa NO 2mph /  3.2km/h 5.2mph /  8.4km/h 66.4% 0in /  0.0mm
10:04 77.5 °F /  25.3 °C 65.3 °F /  18.5 °C 29.9in /  1013.8hPa ONO 2.4mph /  3.8km/h 5.8mph /  9.3km/h 66% 0in /  0.0mm
10:09 77.5 °F /  25.3 °C 65.3 °F /  18.5 °C 29.9in /  1013.8hPa NO 2.4mph /  3.9km/h 4.6mph /  7.4km/h 66% 0in /  0.0mm
10:14 77.5 °F /  25.3 °C 65.5 °F /  18.6 °C 29.9in /  1013.7hPa NO 2.4mph /  3.9km/h 3.5mph /  5.6km/h 66.3% 0in /  0.0mm
10:19 78.1 °F /  25.6 °C 65.8 °F /  18.8 °C 29.9in /  1013.7hPa Sur 2.4mph /  3.9km/h 4.6mph /  7.4km/h 66% 0in /  0.0mm
10:24 78.4 °F /  25.8 °C 65.7 °F /  18.7 °C 29.9in /  1013.7hPa North 1.9mph /  3.1km/h 6.9mph /  11.1km/h 64.9% 0in /  0.0mm
10:29 78.8 °F /  26 °C 65.7 °F /  18.7 °C 29.9in /  1013.6hPa ENE 1.8mph /  2.9km/h 5.9mph /  9.5km/h 64.2% 0in /  0.0mm
10:34 79 °F /  26.1 °C 65.8 °F /  18.8 °C 29.9in /  1013.6hPa ENE 3.2mph /  5.2km/h 4.6mph /  7.4km/h 64% 0in /  0.0mm
10:39 79.2 °F /  26.2 °C 65.7 °F /  18.7 °C 29.9in /  1013.6hPa SSE 3.6mph /  5.8km/h 4.7mph /  7.6km/h 63.4% 0in /  0.0mm
10:44 79.3 °F /  26.3 °C 65.8 °F /  18.8 °C 29.9in /  1013.4hPa SSO 2.2mph /  3.5km/h 4.7mph /  7.6km/h 63.4% 0in /  0.0mm
10:49 80.1 °F /  26.7 °C 66 °F /  18.9 °C 29.9in /  1013.4hPa Este 1.8mph /  2.9km/h 4.6mph /  7.4km/h 62.3% 0in /  0.0mm
10:54 80.4 °F /  26.9 °C 66.2 °F /  19 °C 29.9in /  1013.4hPa Oeste 2.3mph /  3.7km/h 5.9mph /  9.5km/h 61.9% 0in /  0.0mm
10:59 80.8 °F /  27.1 °C 65.8 °F /  18.8 °C 29.9in /  1013.4hPa Este 2.4mph /  3.9km/h 8.1mph /  13km/h 60.6% 0in /  0.0mm
11:04 81 °F /  27.2 °C 65.7 °F /  18.7 °C 29.9in /  1013.4hPa ESE 3.4mph /  5.5km/h 5.9mph /  9.5km/h 59.8% 0in /  0.0mm
11:09 81.1 °F /  27.3 °C 65.8 °F /  18.8 °C 29.9in /  1013.4hPa NNO 3.6mph /  5.8km/h 7.6mph /  12.2km/h 59.8% 0in /  0.0mm
11:14 81.1 °F /  27.3 °C 65.7 °F /  18.7 °C 29.9in /  1013.2hPa NE 3mph /  4.9km/h 8.1mph /  13km/h 59.3% 0in /  0.0mm
11:19 81.3 °F /  27.4 °C 65.7 °F /  18.7 °C 29.9in /  1013.2hPa ENE 2.9mph /  4.7km/h 8.1mph /  13km/h 59.1% 0in /  0.0mm
11:24 81.7 °F /  27.6 °C 65.8 °F /  18.8 °C 29.9in /  1013.2hPa NE 3mph /  4.9km/h 6.9mph /  11.1km/h 58.8% 0in /  0.0mm
11:29 81.9 °F /  27.7 °C 65.7 °F /  18.7 °C 29.9in /  1013.1hPa NNO 3.1mph /  5km/h 6.9mph /  11.1km/h 58% 0in /  0.0mm
11:34 82 °F /  27.8 °C 65.7 °F /  18.7 °C 29.9in /  1013.1hPa NNE 3.8mph /  6.1km/h 9.2mph /  14.8km/h 57.6% 0in /  0.0mm
11:39 82.6 °F /  28.1 °C 65.3 °F /  18.5 °C 29.9in /  1013.1hPa NE 4mph /  6.4km/h 8.1mph /  13km/h 56.2% 0in /  0.0mm
11:44 82.8 °F /  28.2 °C 64.9 °F /  18.3 °C 29.9in /  1013.1hPa North 4mph /  6.4km/h 6.2mph /  10km/h 55.2% 0in /  0.0mm
11:49 82.9 °F /  28.3 °C 64.6 °F /  18.1 °C 29.9in /  1013.1hPa NNE 4mph /  6.4km/h 5.9mph /  9.5km/h 53.8% 0in /  0.0mm
11:54 83.7 °F /  28.7 °C 64 °F /  17.8 °C 29.9in /  1013.1hPa NNE 3.1mph /  5km/h 9.2mph /  14.8km/h 51.7% 0in /  0.0mm
11:59 83.8 °F /  28.8 °C 63.3 °F /  17.4 °C 29.9in /  1013.1hPa NE 2.9mph /  4.7km/h 9.2mph /  14.8km/h 50% 0in /  0.0mm
12:04 83.8 °F /  28.8 °C 63.7 °F /  17.6 °C 29.9in /  1013.1hPa NNE 4.4mph /  7.1km/h 9.2mph /  14.8km/h 50.8% 0in /  0.0mm
12:09 83.8 °F /  28.8 °C 64.2 °F /  17.9 °C 29.9in /  1013.1hPa North 4.7mph /  7.6km/h 6.9mph /  11.1km/h 52% 0in /  0.0mm
12:14 84.4 °F /  29.1 °C 64.6 °F /  18.1 °C 29.9in /  1012.9hPa NE 4.4mph /  7.1km/h 9.2mph /  14.8km/h 51.7% 0in /  0.0mm
12:19 84.7 °F /  29.3 °C 64.8 °F /  18.2 °C 29.9in /  1012.9hPa ENE 4.3mph /  6.9km/h 11.5mph /  18.5km/h 51.1% 0in /  0.0mm
12:24 84.9 °F /  29.4 °C 64.9 °F /  18.3 °C 29.9in /  1012.9hPa NNE 4.3mph /  6.9km/h 9.2mph /  14.8km/h 51.3% 0in /  0.0mm
12:29 85.5 °F /  29.7 °C 65.3 °F /  18.5 °C 29.9in /  1012.7hPa ENE 4.3mph /  6.9km/h 9.2mph /  14.8km/h 51% 0in /  0.0mm
12:34 85.6 °F /  29.8 °C 65.5 °F /  18.6 °C 29.9in /  1012.7hPa NE 4.3mph /  6.9km/h 9.2mph /  14.8km/h 50.9% 0in /  0.0mm
12:39 85.8 °F /  29.9 °C 64.9 °F /  18.3 °C 29.9in /  1012.7hPa NNE 4.3mph /  6.9km/h 11.8mph /  19km/h 50% 0in /  0.0mm
12:44 86 °F /  30 °C 65.3 °F /  18.5 °C 29.9in /  1012.6hPa NE 5.2mph /  8.3km/h 11.5mph /  18.5km/h 50% 0in /  0.0mm
12:49 86.4 °F /  30.2 °C 65.1 °F /  18.4 °C 29.9in /  1012.6hPa ENE 5.4mph /  8.7km/h 9.2mph /  14.8km/h 49.3% 0in /  0.0mm
12:54 86.5 °F /  30.3 °C 64.8 °F /  18.2 °C 29.9in /  1012.6hPa NE 5.2mph /  8.4km/h 11.8mph /  19km/h 48.3% 0in /  0.0mm
12:59 86.5 °F /  30.3 °C 64.4 °F /  18 °C 29.9in /  1012.5hPa NNE 5.2mph /  8.4km/h 11.5mph /  18.5km/h 47.8% 0in /  0.0mm
13:04 86.7 °F /  30.4 °C 64.4 °F /  18 °C 29.9in /  1012.5hPa NE 6.1mph /  9.8km/h 11.8mph /  19km/h 47.6% 0in /  0.0mm
13:09 87.1 °F /  30.6 °C 64.8 °F /  18.2 °C 29.9in /  1012.5hPa ENE 6.2mph /  10km/h 8.1mph /  13km/h 47.4% 0in /  0.0mm
13:14 87.6 °F /  30.9 °C 63 °F /  17.2 °C 29.9in /  1012.4hPa SSE 5mph /  8km/h 9.2mph /  14.8km/h 43.8% 0in /  0.0mm
13:19 88 °F /  31.1 °C 60.8 °F /  16 °C 29.9in /  1012.4hPa SE 4.7mph /  7.6km/h 12.3mph /  19.8km/h 40.2% 0in /  0.0mm
13:24 88.2 °F /  31.2 °C 60.6 °F /  15.9 °C 29.9in /  1012.4hPa SE 5.9mph /  9.5km/h 17.5mph /  28.2km/h 39.7% 0in /  0.0mm
13:29 88.2 °F /  31.2 °C 60.1 °F /  15.6 °C 29.9in /  1012.2hPa Este 6.2mph /  10km/h 8.1mph /  13km/h 39.1% 0in /  0.0mm
13:34 88.3 °F /  31.3 °C 59.5 °F /  15.3 °C 29.9in /  1012.2hPa SE 6mph /  9.6km/h 9.7mph /  15.6km/h 38.1% 0in /  0.0mm
13:39 88.5 °F /  31.4 °C 58.6 °F /  14.8 °C 29.9in /  1012.2hPa SE 5.9mph /  9.5km/h 10.4mph /  16.7km/h 36.5% 0in /  0.0mm
13:44 88.5 °F /  31.4 °C 58.3 °F /  14.6 °C 29.9in /  1011.9hPa SE 6.2mph /  9.9km/h 10.4mph /  16.7km/h 36.1% 0in /  0.0mm
13:49 88.7 °F /  31.5 °C 58.3 °F /  14.6 °C 29.9in /  1011.9hPa Sur 6.2mph /  10km/h 8.1mph /  13km/h 36% 0in /  0.0mm
13:54 88.7 °F /  31.5 °C 57.9 °F /  14.4 °C 29.9in /  1011.9hPa SE 5.4mph /  8.7km/h 10.4mph /  16.7km/h 35.4% 0in /  0.0mm
13:59 88.9 °F /  31.6 °C 58.1 °F /  14.5 °C 29.9in /  1011.7hPa SE 5.2mph /  8.4km/h 12.3mph /  19.8km/h 35.6% 0in /  0.0mm
14:04 88.9 °F /  31.6 °C 59.7 °F /  15.4 °C 29.9in /  1011.7hPa Este 6mph /  9.7km/h 12.7mph /  20.4km/h 37.7% 0in /  0.0mm
14:09 89.2 °F /  31.8 °C 59.2 °F /  15.1 °C 29.9in /  1011.7hPa ESE 6.2mph /  10km/h 11.5mph /  18.5km/h 36.4% 0in /  0.0mm
14:14 89.6 °F /  32 °C 59.4 °F /  15.2 °C 29.9in /  1011.6hPa Este 4.7mph /  7.5km/h 12.3mph /  19.8km/h 36.4% 0in /  0.0mm
14:19 90 °F /  32.2 °C 60.8 °F /  16 °C 29.9in /  1011.6hPa ESE 4.3mph /  6.9km/h 16.1mph /  25.9km/h 37.7% 0in /  0.0mm
14:24 90 °F /  32.2 °C 59.5 °F /  15.3 °C 29.9in /  1011.6hPa SE 5.9mph /  9.5km/h 18.4mph /  29.6km/h 36.1% 0in /  0.0mm
14:29 89.2 °F /  31.8 °C 59 °F /  15 °C 29.9in /  1011.6hPa ESE 6.4mph /  10.3km/h 18.4mph /  29.6km/h 36.1% 0in /  0.0mm
14:34 89.1 °F /  31.7 °C 59.2 °F /  15.1 °C 29.9in /  1011.6hPa ESE 9mph /  14.5km/h 18.1mph /  29.1km/h 36.7% 0in /  0.0mm
14:39 88.9 °F /  31.6 °C 58.8 °F /  14.9 °C 29.9in /  1011.6hPa ESE 9.7mph /  15.6km/h 18.4mph /  29.6km/h 36.6% 0in /  0.0mm
14:44 89.1 °F /  31.7 °C 59.5 °F /  15.3 °C 29.9in /  1011.5hPa ESE 10.1mph /  16.2km/h 16.1mph /  25.9km/h 37.4% 0in /  0.0mm
14:49 89.1 °F /  31.7 °C 60.1 °F /  15.6 °C 29.9in /  1011.5hPa ESE 10.2mph /  16.4km/h 15mph /  24.1km/h 38% 0in /  0.0mm
14:54 89.1 °F /  31.7 °C 59.9 °F /  15.5 °C 29.9in /  1011.5hPa SE 9mph /  14.5km/h 18.4mph /  29.6km/h 37.7% 0in /  0.0mm
14:59 88.9 °F /  31.6 °C 59.9 °F /  15.5 °C 29.9in /  1011.4hPa SE 8.7mph /  14km/h 19.6mph /  31.5km/h 38% 0in /  0.0mm
15:04 88.5 °F /  31.4 °C 59.9 °F /  15.5 °C 29.9in /  1011.4hPa ESE 10.4mph /  16.8km/h 17.3mph /  27.8km/h 38.2% 0in /  0.0mm
15:09 88.7 °F /  31.5 °C 60.4 °F /  15.8 °C 29.9in /  1011.4hPa SE 10.7mph /  17.2km/h 16.1mph /  25.9km/h 38.9% 0in /  0.0mm
15:14 88.9 °F /  31.6 °C 60.4 °F /  15.8 °C 29.9in /  1011.2hPa ESE 9.5mph /  15.3km/h 19.6mph /  31.5km/h 38.6% 0in /  0.0mm
15:19 88.5 °F /  31.4 °C 60.4 °F /  15.8 °C 29.9in /  1011.2hPa ESE 9.2mph /  14.8km/h 21.9mph /  35.2km/h 39% 0in /  0.0mm
15:24 88.2 °F /  31.2 °C 60.8 °F /  16 °C 29.9in /  1011.2hPa ESE 10.9mph /  17.6km/h 17.3mph /  27.8km/h 39.9% 0in /  0.0mm
15:29 88.2 °F /  31.2 °C 61 °F /  16.1 °C 29.9in /  1011.2hPa SE 11.4mph /  18.3km/h 20.8mph /  33.5km/h 40.3% 0in /  0.0mm
15:34 87.8 °F /  31 °C 61.3 °F /  16.3 °C 29.9in /  1011.2hPa ESE 10.9mph /  17.5km/h 21.9mph /  35.2km/h 41.4% 0in /  0.0mm
15:39 88 °F /  31.1 °C 61.9 °F /  16.6 °C 29.9in /  1011.2hPa ESE 10.7mph /  17.2km/h 16.1mph /  25.9km/h 41.8% 0in /  0.0mm
15:44 88.3 °F /  31.3 °C 61.7 °F /  16.5 °C 29.9in /  1011.1hPa SE 10.1mph /  16.3km/h 17.3mph /  27.8km/h 40.9% 0in /  0.0mm
15:49 88.5 °F /  31.4 °C 61.3 °F /  16.3 °C 29.9in /  1011.1hPa ESE 10mph /  16.1km/h 23mph /  37km/h 40.3% 0in /  0.0mm
15:54 88.2 °F /  31.2 °C 61.5 °F /  16.4 °C 29.9in /  1011.1hPa ESE 10.6mph /  17km/h 23mph /  37km/h 41.1% 0in /  0.0mm
15:59 88.2 °F /  31.2 °C 61.5 °F /  16.4 °C 29.9in /  1011.1hPa ESE 10.7mph /  17.2km/h 17.3mph /  27.8km/h 41% 0in /  0.0mm
16:04 88.3 °F /  31.3 °C 61.7 °F /  16.5 °C 29.9in /  1011.1hPa ESE 9.8mph /  15.8km/h 18.4mph /  29.6km/h 41% 0in /  0.0mm
16:09 88.3 °F /  31.3 °C 61.2 °F /  16.2 °C 29.9in /  1011.1hPa ESE 9.7mph /  15.6km/h 17mph /  27.4km/h 40.3% 0in /  0.0mm
16:14 88.3 °F /  31.3 °C 61 °F /  16.1 °C 29.9in /  1010.8hPa ESE 9.9mph /  16km/h 17.3mph /  27.8km/h 40% 0in /  0.0mm
16:19 88.2 °F /  31.2 °C 61.2 °F /  16.2 °C 29.9in /  1010.8hPa ESE 10mph /  16.1km/h 18.1mph /  29.1km/h 40.4% 0in /  0.0mm
16:24 88 °F /  31.1 °C 61.2 °F /  16.2 °C 29.9in /  1010.8hPa ESE 10.2mph /  16.4km/h 19.7mph /  31.7km/h 40.9% 0in /  0.0mm
16:29 87.6 °F /  30.9 °C 61.5 °F /  16.4 °C 29.9in /  1010.8hPa ESE 10.2mph /  16.4km/h 19.6mph /  31.5km/h 41.8% 0in /  0.0mm
16:34 87.4 °F /  30.8 °C 61.9 °F /  16.6 °C 29.9in /  1010.8hPa SE 11.2mph /  18km/h 17.3mph /  27.8km/h 42.4% 0in /  0.0mm
16:39 87.6 °F /  30.9 °C 61.9 °F /  16.6 °C 29.9in /  1010.8hPa ESE 11.4mph /  18.3km/h 18.4mph /  29.6km/h 42.1% 0in /  0.0mm
16:44 87.6 °F /  30.9 °C 62.4 °F /  16.9 °C 29.8in /  1010.6hPa ESE 10mph /  16.1km/h 16.3mph /  26.2km/h 43% 0in /  0.0mm
16:49 87.4 °F /  30.8 °C 62.1 °F /  16.7 °C 29.8in /  1010.6hPa ESE 9.7mph /  15.6km/h 20.8mph /  33.5km/h 43% 0in /  0.0mm
16:54 87.3 °F /  30.7 °C 62.2 °F /  16.8 °C 29.8in /  1010.6hPa ESE 10.5mph /  16.9km/h 18.4mph /  29.6km/h 43.5% 0in /  0.0mm
16:59 86.9 °F /  30.5 °C 62.4 °F /  16.9 °C 29.8in /  1010.6hPa ESE 10.7mph /  17.2km/h 18.5mph /  29.8km/h 44% 0in /  0.0mm
17:04 86.9 °F /  30.5 °C 62.2 °F /  16.8 °C 29.8in /  1010.6hPa ESE 11.6mph /  18.7km/h 18.4mph /  29.6km/h 43.8% 0in /  0.0mm
17:09 87.3 °F /  30.7 °C 62.6 °F /  17 °C 29.8in /  1010.6hPa ESE 11.8mph /  19km/h 17.5mph /  28.2km/h 43.8% 0in /  0.0mm
17:14 87.4 °F /  30.8 °C 61.7 °F /  16.5 °C 29.8in /  1010.4hPa SE 10.1mph /  16.3km/h 17.3mph /  27.8km/h 42% 0in /  0.0mm
17:19 87.4 °F /  30.8 °C 61.5 °F /  16.4 °C 29.8in /  1010.4hPa SE 9.7mph /  15.6km/h 16.3mph /  26.2km/h 42% 0in /  0.0mm
17:24 87.4 °F /  30.8 °C 60.4 °F /  15.8 °C 29.8in /  1010.4hPa SE 9.9mph /  16km/h 18.4mph /  29.6km/h 40.3% 0in /  0.0mm
17:29 87.8 °F /  31 °C 60.1 °F /  15.6 °C 29.8in /  1010.3hPa SE 10mph /  16.1km/h 16.3mph /  26.2km/h 39.3% 0in /  0.0mm
17:34 87.8 °F /  31 °C 59.2 °F /  15.1 °C 29.8in /  1010.3hPa ESE 9.3mph /  15km/h 17.8mph /  28.6km/h 38.3% 0in /  0.0mm
17:39 88.2 °F /  31.2 °C 59.4 °F /  15.2 °C 29.8in /  1010.3hPa ESE 9.2mph /  14.8km/h 19mph /  30.6km/h 38.1% 0in /  0.0mm
17:44 88 °F /  31.1 °C 59 °F /  15 °C 29.8in /  1010.1hPa SE 9.2mph /  14.8km/h 16.1mph /  25.9km/h 37.9% 0in /  0.0mm
17:49 87.8 °F /  31 °C 59.7 °F /  15.4 °C 29.8in /  1010.1hPa SE 9.2mph /  14.8km/h 15.2mph /  24.5km/h 38.9% 0in /  0.0mm
17:54 88 °F /  31.1 °C 59.2 °F /  15.1 °C 29.8in /  1010.1hPa SE 9.2mph /  14.8km/h 13.8mph /  22.2km/h 38% 0in /  0.0mm
17:59 88 °F /  31.1 °C 60.1 °F /  15.6 °C 29.8in /  1009.9hPa SE 9.2mph /  14.8km/h 16.1mph /  25.9km/h 39.1% 0in /  0.0mm
18:04 87.6 °F /  30.9 °C 60.6 °F /  15.9 °C 29.8in /  1009.9hPa SE 9.2mph /  14.8km/h 17.3mph /  27.8km/h 40.4% 0in /  0.0mm
18:09 87.4 °F /  30.8 °C 60.8 °F /  16 °C 29.8in /  1009.9hPa SE 9.2mph /  14.8km/h 18.4mph /  29.6km/h 41% 0in /  0.0mm
18:14 87.3 °F /  30.7 °C 61.9 °F /  16.6 °C 29.8in /  1009.9hPa SE 9.6mph /  15.5km/h 16.3mph /  26.2km/h 42.6% 0in /  0.0mm
18:19 87.1 °F /  30.6 °C 62.4 °F /  16.9 °C 29.8in /  1009.9hPa ESE 9.7mph /  15.6km/h 19.7mph /  31.7km/h 43.9% 0in /  0.0mm
18:24 86.7 °F /  30.4 °C 62.8 °F /  17.1 °C 29.8in /  1009.9hPa ESE 9.9mph /  16km/h 19.6mph /  31.5km/h 44.9% 0in /  0.0mm
18:29 86.7 °F /  30.4 °C 63 °F /  17.2 °C 29.8in /  1009.7hPa SE 10mph /  16.1km/h 15mph /  24.1km/h 45.3% 0in /  0.0mm
18:34 86.9 °F /  30.5 °C 63 °F /  17.2 °C 29.8in /  1009.7hPa SE 8.8mph /  14.2km/h 14.7mph /  23.7km/h 45.1% 0in /  0.0mm
18:39 86.5 °F /  30.3 °C 63 °F /  17.2 °C 29.8in /  1009.7hPa ESE 8.5mph /  13.7km/h 18.4mph /  29.6km/h 45.2% 0in /  0.0mm
18:44 86.5 °F /  30.3 °C 63.1 °F /  17.3 °C 29.8in /  1009.6hPa SE 9.1mph /  14.6km/h 18.5mph /  29.8km/h 45.7% 0in /  0.0mm
18:49 86.2 °F /  30.1 °C 63.1 °F /  17.3 °C 29.8in /  1009.6hPa SE 9.2mph /  14.8km/h 18.4mph /  29.6km/h 46.2% 0in /  0.0mm
18:54 85.6 °F /  29.8 °C 63.1 °F /  17.3 °C 29.8in /  1009.6hPa SE 9.8mph /  15.8km/h 19.7mph /  31.7km/h 47% 0in /  0.0mm
18:59 85.6 °F /  29.8 °C 63.3 °F /  17.4 °C 29.8in /  1009.5hPa SE 10mph /  16.1km/h 16.3mph /  26.2km/h 47.4% 0in /  0.0mm
19:04 85.5 °F /  29.7 °C 63.5 °F /  17.5 °C 29.8in /  1009.5hPa SE 9.3mph /  15km/h 16.3mph /  26.2km/h 48% 0in /  0.0mm
19:09 85.5 °F /  29.7 °C 64 °F /  17.8 °C 29.8in /  1009.5hPa SE 9.2mph /  14.8km/h 16.3mph /  26.2km/h 49% 0in /  0.0mm
19:14 85.5 °F /  29.7 °C 64 °F /  17.8 °C 29.8in /  1009.5hPa ESE 8.8mph /  14.2km/h 16.1mph /  25.9km/h 48.9% 0in /  0.0mm
19:19 85.1 °F /  29.5 °C 64 °F /  17.8 °C 29.8in /  1009.5hPa ESE 8.7mph /  14km/h 16.3mph /  26.2km/h 49.6% 0in /  0.0mm
19:24 84.6 °F /  29.2 °C 64.6 °F /  18.1 °C 29.8in /  1009.5hPa SE 9.9mph /  15.9km/h 16.1mph /  25.9km/h 51.2% 0in /  0.0mm
19:29 84.6 °F /  29.2 °C 64.9 °F /  18.3 °C 29.8in /  1009.4hPa ESE 10.2mph /  16.4km/h 19.6mph /  31.5km/h 52% 0in /  0.0mm
19:34 84.6 °F /  29.2 °C 64.9 °F /  18.3 °C 29.8in /  1009.4hPa ESE 9.8mph /  15.8km/h 15mph /  24.1km/h 52% 0in /  0.0mm
19:39 84.6 °F /  29.2 °C 65.1 °F /  18.4 °C 29.8in /  1009.4hPa ESE 9.7mph /  15.6km/h 18.4mph /  29.6km/h 52% 0in /  0.0mm
19:44 84.2 °F /  29 °C 65.1 °F /  18.4 °C 29.8in /  1009.3hPa SE 8.9mph /  14.3km/h 18.4mph /  29.6km/h 52.9% 0in /  0.0mm
19:49 84.2 °F /  29 °C 65.1 °F /  18.4 °C 29.8in /  1009.3hPa ESE 8.7mph /  14km/h 14.7mph /  23.7km/h 52.8% 0in /  0.0mm
19:54 84 °F /  28.9 °C 64.8 °F /  18.2 °C 29.8in /  1009.4hPa ESE 8.2mph /  13.2km/h 15mph /  24.1km/h 52.7% 0in /  0.0mm
19:59 83.7 °F /  28.7 °C 65.1 °F /  18.4 °C 29.8in /  1009.4hPa ESE 8.1mph /  13km/h 16.1mph /  25.9km/h 53.6% 0in /  0.0mm
20:04 83.7 °F /  28.7 °C 65.3 °F /  18.5 °C 29.8in /  1009.4hPa ESE 8.6mph /  13.9km/h 13.5mph /  21.7km/h 54% 0in /  0.0mm
20:09 83.7 °F /  28.7 °C 64.9 °F /  18.3 °C 29.8in /  1009.5hPa ESE 8.7mph /  14km/h 16.1mph /  25.9km/h 53.6% 0in /  0.0mm
20:14 83.1 °F /  28.4 °C 64.6 °F /  18.1 °C 29.8in /  1009.5hPa ESE 8.7mph /  14km/h 15mph /  24.1km/h 53.5% 0in /  0.0mm
20:19 82.9 °F /  28.3 °C 64.2 °F /  17.9 °C 29.8in /  1009.5hPa ESE 8.7mph /  14km/h 16.1mph /  25.9km/h 53.3% 0in /  0.0mm
20:24 82.8 °F /  28.2 °C 64.2 °F /  17.9 °C 29.8in /  1009.5hPa ESE 9.1mph /  14.7km/h 16.1mph /  25.9km/h 53.4% 0in /  0.0mm
20:29 82.8 °F /  28.2 °C 64.4 °F /  18 °C 29.8in /  1009.5hPa ESE 9.2mph /  14.8km/h 15.2mph /  24.5km/h 54% 0in /  0.0mm
20:34 82.6 °F /  28.1 °C 64.4 °F /  18 °C 29.8in /  1009.5hPa ESE 8.8mph /  14.2km/h 14.5mph /  23.3km/h 54.2% 0in /  0.0mm
20:39 82.4 °F /  28 °C 64.8 °F /  18.2 °C 29.8in /  1009.5hPa ESE 8.7mph /  14km/h 15mph /  24.1km/h 55.3% 0in /  0.0mm
20:44 82.4 °F /  28 °C 65.1 °F /  18.4 °C 29.8in /  1009.5hPa Este 7.9mph /  12.7km/h 12.7mph /  20.4km/h 56.2% 0in /  0.0mm
20:49 82.2 °F /  27.9 °C 65.7 °F /  18.7 °C 29.8in /  1009.5hPa Este 7.6mph /  12.2km/h 12.7mph /  20.4km/h 57.1% 0in /  0.0mm
20:54 82 °F /  27.8 °C 65.7 °F /  18.7 °C 29.8in /  1009.6hPa Este 6.6mph /  10.7km/h 11.5mph /  18.5km/h 58% 0in /  0.0mm
20:59 81.9 °F /  27.7 °C 65.7 °F /  18.7 °C 29.8in /  1009.6hPa ESE 6.4mph /  10.3km/h 11.5mph /  18.5km/h 58.2% 0in /  0.0mm
21:04 81.7 °F /  27.6 °C 66 °F /  18.9 °C 29.8in /  1009.6hPa Este 6.3mph /  10.1km/h 12.7mph /  20.4km/h 59% 0in /  0.0mm
21:09 81.5 °F /  27.5 °C 65.7 °F /  18.7 °C 29.8in /  1009.6hPa Este 6.2mph /  10km/h 12.7mph /  20.4km/h 59% 0in /  0.0mm
21:14 81.1 °F /  27.3 °C 65.7 °F /  18.7 °C 29.8in /  1009.6hPa Este 6mph /  9.6km/h 11.5mph /  18.5km/h 59.1% 0in /  0.0mm
21:19 81 °F /  27.2 °C 65.5 °F /  18.6 °C 29.8in /  1009.6hPa Este 5.9mph /  9.5km/h 15mph /  24.1km/h 59.2% 0in /  0.0mm
21:24 80.8 °F /  27.1 °C 65.5 °F /  18.6 °C 29.8in /  1009.7hPa Este 7.1mph /  11.4km/h 10.4mph /  16.7km/h 59.7% 0in /  0.0mm
21:29 80.8 °F /  27.1 °C 65.7 °F /  18.7 °C 29.8in /  1009.7hPa Este 7.4mph /  11.9km/h 11.2mph /  18km/h 60.2% 0in /  0.0mm
21:34 80.4 °F /  26.9 °C 64.8 °F /  18.2 °C 29.8in /  1009.7hPa ESE 6.3mph /  10.1km/h 11.5mph /  18.5km/h 59% 0in /  0.0mm
21:39 80.4 °F /  26.9 °C 64.8 °F /  18.2 °C 29.8in /  1009.8hPa ESE 5.9mph /  9.5km/h 11.5mph /  18.5km/h 58.8% 0in /  0.0mm
21:44 80.2 °F /  26.8 °C 64.6 °F /  18.1 °C 29.8in /  1009.8hPa ESE 6.2mph /  9.9km/h 10.4mph /  16.7km/h 58.9% 0in /  0.0mm
21:49 80.2 °F /  26.8 °C 64 °F /  17.8 °C 29.8in /  1009.8hPa ESE 6.2mph /  10km/h 11.5mph /  18.5km/h 58% 0in /  0.0mm
21:54 80.2 °F /  26.8 °C 63.9 °F /  17.7 °C 29.8in /  1009.9hPa ESE 6mph /  9.6km/h 10mph /  16.1km/h 57.5% 0in /  0.0mm
21:59 80.1 °F /  26.7 °C 63.5 °F /  17.5 °C 29.8in /  1009.9hPa ESE 5.9mph /  9.5km/h 11.5mph /  18.5km/h 57% 0in /  0.0mm
22:04 80.1 °F /  26.7 °C 63.5 °F /  17.5 °C 29.8in /  1009.9hPa ESE 6.1mph /  9.8km/h 10.7mph /  17.2km/h 57.3% 0in /  0.0mm
22:09 79.9 °F /  26.6 °C 64.2 °F /  17.9 °C 29.8in /  1010.2hPa ESE 6.2mph /  10km/h 10.7mph /  17.2km/h 58.7% 0in /  0.0mm
22:14 79.5 °F /  26.4 °C 65.1 °F /  18.4 °C 29.8in /  1010.2hPa ESE 6mph /  9.6km/h 11.5mph /  18.5km/h 61.5% 0in /  0.0mm
22:19 79.2 °F /  26.2 °C 65.5 °F /  18.6 °C 29.8in /  1010.2hPa ESE 5.9mph /  9.5km/h 8.1mph /  13km/h 63% 0in /  0.0mm
22:24 79 °F /  26.1 °C 65.3 °F /  18.5 °C 29.8in /  1010.3hPa ESE 5.9mph /  9.5km/h 7.4mph /  11.9km/h 63% 0in /  0.0mm
22:29 79 °F /  26.1 °C 65.1 °F /  18.4 °C 29.8in /  1010.3hPa Este 5.9mph /  9.5km/h 7.4mph /  11.9km/h 62.7% 0in /  0.0mm
22:34 78.6 °F /  25.9 °C 65.1 °F /  18.4 °C 29.8in /  1010.3hPa Este 4.3mph /  7km/h 8.1mph /  13km/h 63% 0in /  0.0mm
22:39 78.4 °F /  25.8 °C 64.8 °F /  18.2 °C 29.8in /  1010.5hPa Este 4mph /  6.4km/h 8.1mph /  13km/h 63% 0in /  0.0mm
22:44 78.3 °F /  25.7 °C 64.6 °F /  18.1 °C 29.8in /  1010.5hPa NE 4.2mph /  6.8km/h 5.2mph /  8.4km/h 63% 0in /  0.0mm
22:49 78.3 °F /  25.7 °C 64.6 °F /  18.1 °C 29.8in /  1010.5hPa ENE 4.3mph /  6.9km/h 5.2mph /  8.4km/h 63% 0in /  0.0mm
22:54 78.1 °F /  25.6 °C 64.4 °F /  18 °C 29.8in /  1010.7hPa Este 3.2mph /  5.1km/h 6.2mph /  10km/h 63% 0in /  0.0mm
22:59 77.9 °F /  25.5 °C 64.6 °F /  18.1 °C 29.8in /  1010.7hPa Este 2.9mph /  4.7km/h 6.9mph /  11.1km/h 63.6% 0in /  0.0mm
23:04 77.7 °F /  25.4 °C 64.9 °F /  18.3 °C 29.8in /  1010.7hPa ENE 3.5mph /  5.7km/h 6.2mph /  10km/h 64.7% 0in /  0.0mm
23:09 77.5 °F /  25.3 °C 65.3 °F /  18.5 °C 29.9in /  1011.0hPa ENE 3.6mph /  5.8km/h 6.2mph /  10km/h 65.9% 0in /  0.0mm
23:14 77.5 °F /  25.3 °C 65.3 °F /  18.5 °C 29.9in /  1011.0hPa ESE 3mph /  4.9km/h 5.2mph /  8.4km/h 66% 0in /  0.0mm
23:19 77.4 °F /  25.2 °C 65.1 °F /  18.4 °C 29.9in /  1011.0hPa SE 2.9mph /  4.7km/h 5.2mph /  8.4km/h 66% 0in /  0.0mm
23:24 77.4 °F /  25.2 °C 64.8 °F /  18.2 °C 29.9in /  1011.1hPa SE 2.9mph /  4.7km/h 4.6mph /  7.4km/h 65.1% 0in /  0.0mm
23:29 77.4 °F /  25.2 °C 64.8 °F /  18.2 °C 29.9in /  1011.1hPa Este 2.9mph /  4.7km/h 4.7mph /  7.6km/h 65% 0in /  0.0mm
23:34 77.4 °F /  25.2 °C 64.9 °F /  18.3 °C 29.9in /  1011.1hPa Este 2.9mph /  4.7km/h 6.2mph /  10km/h 65.7% 0in /  0.0mm
23:39 77 °F /  25 °C 64.9 °F /  18.3 °C 29.9in /  1011.2hPa Este 2.9mph /  4.7km/h 5.8mph /  9.3km/h 66.6% 0in /  0.0mm
23:44 76.6 °F /  24.8 °C 64.9 °F /  18.3 °C 29.9in /  1011.2hPa ENE 3.8mph /  6.1km/h 4.6mph /  7.4km/h 67% 0in /  0.0mm
23:49 76.6 °F /  24.8 °C 65.1 °F /  18.4 °C 29.9in /  1011.2hPa ENE 4mph /  6.4km/h 6.9mph /  11.1km/h 67.6% 0in /  0.0mm
23:54 76.5 °F /  24.7 °C 65.3 °F /  18.5 °C 29.9in /  1011.2hPa ENE 3.3mph /  5.3km/h 5.8mph /  9.3km/h 68.7% 0in /  0.0mm
23:59 76.3 °F /  24.6 °C 65.3 °F /  18.5 °C 29.9in /  1011.2hPa Este 3.1mph /  5km/h 7.6mph /  12.2km/h 69% 0in /  0.0mm
Murcia-Puente Tocinos, Espa?a
Compliments of Weather Underground - 3 mb

La estación de MeteoMurcia.com, publica sus datos en los siguientes proyectos:

Weather Underground PWS IMURCIAP2 Meteoclimatic www.awekas.at

W3Counter
Web Analytics